Time;durP1;ratioP1;P1;durP2;ratioP2;P2;SDS_P1;SDS_P2;PMS_P1;PMS_P2;Temp;Humidity;BMP_temperature;BMP_pressure;BME280_temperature;BME280_humidity;BME280_pressure;Samples;Min_cycle;Max_cycle;Signal;HPM_P1;HPM_P2
2022/04/12 00:00:25;;;;;;;8.77;7.40;;;10.20;99.90;;;;;;4974613;28;20174;-65
2022/04/12 00:02:50;;;;;;;8.57;7.97;;;10.20;99.90;;;;;;4974444;28;20201;-66
2022/04/12 00:05:16;;;;;;;8.63;7.43;;;10.20;99.90;;;;;;4974305;28;20197;-65
2022/04/12 00:07:43;;;;;;;8.33;7.53;;;10.20;99.90;;;;;;4973558;28;20173;-65
2022/04/12 00:10:10;;;;;;;9.37;8.43;;;10.20;99.90;;;;;;4973125;28;20185;-66
2022/04/12 00:12:37;;;;;;;8.73;8.13;;;10.10;99.90;;;;;;4974220;28;20210;-66
2022/04/12 00:15:04;;;;;;;9.10;8.30;;;10.10;99.90;;;;;;4974456;28;20177;-65
2022/04/12 00:20:14;;;;;;;9.40;8.70;;;10.10;99.90;;;;;;4975743;28;20654;-66
2022/04/12 00:22:40;;;;;;;7.97;7.37;;;10.10;99.90;;;;;;4974644;28;20193;-65
2022/04/12 00:25:09;;;;;;;11.43;10.33;;;10.10;99.90;;;;;;4981675;28;20177;-66
2022/04/12 00:27:36;;;;;;;8.90;8.23;;;10.00;99.90;;;;;;4993414;28;20197;-66
2022/04/12 00:30:02;;;;;;;8.47;7.70;;;10.00;99.90;;;;;;4993422;28;20200;-65
2022/04/12 00:32:27;;;;;;;8.53;7.83;;;10.00;99.90;;;;;;4993251;28;20201;-66
2022/04/12 00:34:53;;;;;;;9.33;7.50;;;10.00;99.90;;;;;;4991822;28;20173;-66
2022/04/12 00:37:19;;;;;;;9.03;7.53;;;10.00;99.90;;;;;;4993281;28;20184;-66
2022/04/12 00:39:44;;;;;;;8.50;7.80;;;10.00;99.90;;;;;;4993060;28;20176;-66
2022/04/12 00:42:10;;;;;;;8.40;7.60;;;9.90;99.90;;;;;;4993036;28;20557;-66
2022/04/12 00:44:35;;;;;;;8.27;7.47;;;9.90;99.90;;;;;;4991627;28;20189;-65
2022/04/12 00:47:01;;;;;;;8.20;7.53;;;9.90;99.90;;;;;;4992948;28;20177;-66
2022/04/12 00:49:27;;;;;;;8.43;7.67;;;9.90;99.90;;;;;;4993165;28;20243;-66
2022/04/12 00:51:53;;;;;;;8.57;7.80;;;9.90;99.90;;;;;;4992721;28;20216;-66
2022/04/12 00:54:20;;;;;;;8.17;7.47;;;9.80;99.90;;;;;;4991635;28;20211;-66
2022/04/12 00:56:51;;;;;;;7.60;7.00;;;9.90;99.90;;;;;;4992530;28;20173;-66
2022/04/12 00:59:17;;;;;;;8.00;7.40;;;9.80;99.90;;;;;;4992995;28;20192;-67
2022/04/12 01:01:43;;;;;;;8.90;8.20;;;9.80;99.90;;;;;;4992498;28;20219;-66
2022/04/12 01:04:08;;;;;;;8.27;7.63;;;9.80;99.90;;;;;;4992877;28;20177;-66
2022/04/12 01:06:34;;;;;;;7.87;7.30;;;9.80;99.90;;;;;;4992775;28;20199;-65
2022/04/12 01:09:04;;;;;;;8.40;7.60;;;9.80;99.90;;;;;;4991526;28;20191;-66
2022/04/12 01:11:30;;;;;;;8.27;7.63;;;9.80;99.90;;;;;;4992716;28;20184;-66
2022/04/12 01:13:55;;;;;;;8.73;7.80;;;9.80;99.90;;;;;;4992397;28;20204;-66
2022/04/12 01:16:21;;;;;;;9.63;8.70;;;9.90;99.90;;;;;;4992308;28;20208;-66
2022/04/12 01:18:46;;;;;;;9.20;8.50;;;9.90;99.90;;;;;;4990260;28;20635;-65
2022/04/12 01:21:12;;;;;;;7.70;7.00;;;9.90;99.90;;;;;;4992431;28;20196;-65
2022/04/12 01:23:54;;;;;;;8.03;7.30;;;10.00;99.90;;;;;;4992421;28;20630;-65
2022/04/12 01:26:20;;;;;;;7.73;7.13;;;9.90;99.90;;;;;;4974515;28;20189;-66
2022/04/12 01:28:46;;;;;;;7.97;7.27;;;9.90;99.90;;;;;;4973053;28;20185;-67
2022/04/12 01:31:12;;;;;;;9.27;7.10;;;9.90;99.90;;;;;;4972975;28;20698;-66
2022/04/12 01:33:37;;;;;;;8.47;7.67;;;9.90;99.90;;;;;;4972832;28;20698;-66
2022/04/12 01:36:03;;;;;;;8.10;7.50;;;9.90;99.90;;;;;;4972483;28;20174;-66
2022/04/12 01:38:29;;;;;;;7.63;7.07;;;9.90;99.90;;;;;;4972837;28;20189;-65
2022/04/12 01:40:54;;;;;;;8.10;7.30;;;9.90;99.90;;;;;;4971780;28;20659;-66
2022/04/12 01:43:20;;;;;;;8.13;7.53;;;9.90;99.90;;;;;;4972815;28;20536;-66
2022/04/12 01:45:46;;;;;;;9.33;8.53;;;9.90;99.90;;;;;;4972283;28;20636;-65
2022/04/12 01:48:11;;;;;;;8.37;7.60;;;10.00;99.90;;;;;;4972927;28;20204;-65
2022/04/12 01:50:37;;;;;;;8.13;7.30;;;9.90;99.90;;;;;;4972749;28;20182;-66
2022/04/12 01:53:03;;;;;;;8.90;8.10;;;9.90;99.90;;;;;;4971160;28;20228;-66
2022/04/12 01:55:29;;;;;;;8.47;7.77;;;9.90;99.90;;;;;;4972339;28;20187;-65
2022/04/12 01:57:54;;;;;;;9.00;8.20;;;9.90;99.90;;;;;;4972363;28;20173;-65
2022/04/12 02:00:20;;;;;;;7.90;7.40;;;9.90;99.90;;;;;;4972717;28;20173;-66
2022/04/12 02:02:46;;;;;;;8.93;7.83;;;9.90;99.90;;;;;;4972563;28;20343;-65
2022/04/12 02:05:11;;;;;;;8.10;7.27;;;9.90;99.90;;;;;;4972333;28;20182;-66
2022/04/12 02:07:37;;;;;;;8.20;7.50;;;9.90;99.90;;;;;;4972851;28;20268;-65
2022/04/12 02:10:04;;;;;;;8.50;7.90;;;9.90;99.90;;;;;;4972458;28;20694;-65
2022/04/12 02:12:30;;;;;;;8.07;7.40;;;9.90;99.90;;;;;;4972435;28;20750;-66
2022/04/12 02:14:56;;;;;;;8.13;7.47;;;9.90;99.90;;;;;;4972140;28;20256;-66
2022/04/12 02:17:21;;;;;;;8.10;7.40;;;10.00;99.90;;;;;;4972455;28;20257;-65
2022/04/12 02:19:48;;;;;;;8.83;8.03;;;10.00;99.90;;;;;;4972276;28;20618;-66
2022/04/12 02:22:13;;;;;;;9.73;7.43;;;10.00;99.90;;;;;;4972477;28;20221;-65
2022/04/12 02:24:39;;;;;;;8.17;7.20;;;10.10;99.90;;;;;;4976686;28;20215;-66
2022/04/12 02:27:05;;;;;;;9.80;8.40;;;10.10;99.90;;;;;;4991682;28;20208;-65
2022/04/12 02:29:30;;;;;;;8.53;7.73;;;10.20;99.90;;;;;;4991864;28;20176;-65
2022/04/12 02:31:56;;;;;;;9.47;8.03;;;10.20;99.90;;;;;;4995087;28;20655;-66
2022/04/12 02:34:22;;;;;;;8.20;7.60;;;10.30;99.90;;;;;;4995637;28;20682;-66
2022/04/12 02:36:48;;;;;;;7.93;7.10;;;10.30;99.90;;;;;;4995131;28;20184;-66
2022/04/12 02:39:14;;;;;;;8.07;7.33;;;10.30;99.90;;;;;;4995475;28;20657;-66
2022/04/12 02:41:40;;;;;;;8.63;7.80;;;10.30;99.90;;;;;;4994010;28;20240;-65
2022/04/12 02:44:06;;;;;;;8.40;7.60;;;10.40;99.90;;;;;;4995386;28;20208;-65
2022/04/12 02:46:31;;;;;;;8.73;7.87;;;10.40;99.90;;;;;;4995081;28;20169;-65
2022/04/12 02:48:57;;;;;;;8.53;7.90;;;10.40;99.90;;;;;;4993928;28;20271;-66
2022/04/12 02:51:23;;;;;;;7.97;7.40;;;10.40;99.90;;;;;;4995294;28;20254;-65
2022/04/12 02:53:48;;;;;;;8.43;7.73;;;10.40;99.90;;;;;;4993623;28;20209;-65
2022/04/12 02:56:14;;;;;;;8.07;7.47;;;10.40;99.90;;;;;;4995214;28;20260;-65
2022/04/12 02:58:40;;;;;;;8.50;7.60;;;10.50;99.90;;;;;;4995064;28;20173;-66
2022/04/12 03:01:06;;;;;;;8.27;7.30;;;10.50;99.90;;;;;;4993732;28;20220;-66
2022/04/12 03:03:31;;;;;;;8.10;7.37;;;10.50;99.90;;;;;;4995054;28;20176;-66
2022/04/12 03:05:57;;;;;;;8.10;7.03;;;10.50;99.90;;;;;;4994510;28;20662;-65
2022/04/12 03:08:23;;;;;;;7.67;6.97;;;10.50;99.90;;;;;;4995085;28;20256;-66
2022/04/12 03:10:48;;;;;;;8.67;7.93;;;10.40;99.90;;;;;;4995009;28;20185;-66
2022/04/12 03:13:14;;;;;;;8.90;8.17;;;10.40;99.90;;;;;;4994778;28;20682;-65
2022/04/12 03:15:40;;;;;;;8.40;7.80;;;10.30;99.90;;;;;;4994453;28;20264;-65
2022/04/12 03:18:05;;;;;;;7.83;7.13;;;10.30;99.90;;;;;;4994693;28;20175;-65
2022/04/12 03:20:32;;;;;;;8.27;7.57;;;10.20;99.90;;;;;;4994846;28;20192;-66
2022/04/12 03:22:58;;;;;;;8.17;7.50;;;10.20;99.90;;;;;;4994823;28;20196;-65
2022/04/12 03:25:24;;;;;;;8.10;7.30;;;10.20;99.90;;;;;;4983960;28;20177;-65
2022/04/12 03:27:50;;;;;;;8.40;7.70;;;10.10;99.90;;;;;;4974983;28;20228;-65
2022/04/12 03:30:16;;;;;;;7.87;7.07;;;10.10;99.90;;;;;;4973892;28;20182;-66
2022/04/12 03:32:42;;;;;;;7.73;7.03;;;10.00;99.90;;;;;;4974886;28;20592;-65
2022/04/12 03:35:08;;;;;;;7.90;7.30;;;10.00;99.90;;;;;;4974704;28;20189;-65
2022/04/12 03:37:34;;;;;;;8.60;7.87;;;9.90;99.90;;;;;;4975042;28;20181;-66
2022/04/12 03:39:59;;;;;;;8.57;7.77;;;9.90;99.90;;;;;;4973652;28;20180;-66
2022/04/12 03:42:25;;;;;;;9.20;8.37;;;9.90;99.90;;;;;;5044389;23;20230;-66
2022/04/12 03:44:51;;;;;;;8.30;7.63;;;9.90;99.90;;;;;;5053814;28;20193;-64
2022/04/12 03:47:17;;;;;;;8.07;7.37;;;9.90;99.90;;;;;;5053524;28;20171;-64
2022/04/12 03:49:43;;;;;;;7.93;7.27;;;9.90;99.90;;;;;;5035322;28;20411;-64
2022/04/12 03:52:09;;;;;;;9.43;8.37;;;9.80;99.90;;;;;;5053178;28;20269;-64
2022/04/12 03:54:35;;;;;;;8.03;7.23;;;9.80;99.90;;;;;;5052950;28;20198;-63
2022/04/12 03:57:01;;;;;;;7.73;7.10;;;9.80;99.90;;;;;;5053089;28;20170;-64
2022/04/12 03:59:27;;;;;;;7.73;7.10;;;9.80;99.90;;;;;;5053232;28;20167;-64
2022/04/12 04:01:52;;;;;;;7.73;7.10;;;9.70;99.90;;;;;;5052953;28;20187;-64
2022/04/12 04:04:18;;;;;;;8.10;7.30;;;9.70;99.90;;;;;;5053116;28;20229;-64
2022/04/12 04:06:44;;;;;;;8.67;7.93;;;9.70;99.90;;;;;;5052739;28;20177;-65
2022/04/12 04:09:10;;;;;;;7.97;7.37;;;9.70;99.90;;;;;;5053061;28;20253;-65
2022/04/12 04:11:38;;;;;;;8.20;7.50;;;9.70;99.90;;;;;;5053007;28;20182;-65
2022/04/12 04:14:05;;;;;;;8.20;7.60;;;9.70;99.90;;;;;;5052673;28;20296;-65
2022/04/12 04:16:31;;;;;;;7.50;6.80;;;9.70;99.90;;;;;;5052878;28;20628;-64
2022/04/12 04:18:56;;;;;;;8.47;7.67;;;9.70;99.90;;;;;;5052650;28;20177;-64
2022/04/12 04:21:22;;;;;;;8.60;7.80;;;9.60;99.90;;;;;;5052664;28;20241;-65
2022/04/12 04:23:47;;;;;;;8.47;7.77;;;9.60;99.90;;;;;;5052456;28;20185;-65
2022/04/12 04:26:13;;;;;;;7.80;7.13;;;9.50;99.90;;;;;;5052369;28;20171;-64
2022/04/12 04:28:41;;;;;;;8.63;7.37;;;9.50;99.90;;;;;;5052740;28;20258;-64
2022/04/12 04:31:08;;;;;;;7.93;7.20;;;9.50;99.90;;;;;;5052087;28;20229;-65
2022/04/12 04:33:33;;;;;;;7.77;7.07;;;9.40;99.90;;;;;;5052540;28;20234;-64
2022/04/12 04:35:59;;;;;;;7.83;7.03;;;9.40;99.90;;;;;;5051930;28;20268;-64
2022/04/12 04:38:25;;;;;;;7.20;6.60;;;9.40;99.90;;;;;;5052449;28;20167;-65
2022/04/12 04:40:50;;;;;;;7.37;6.73;;;9.40;99.90;;;;;;5051749;28;20636;-65
2022/04/12 04:43:16;;;;;;;7.60;6.90;;;9.40;99.90;;;;;;5052269;28;20233;-64
2022/04/12 04:45:43;;;;;;;7.53;6.93;;;9.40;99.90;;;;;;5051876;28;20182;-64
2022/04/12 04:48:10;;;;;;;8.20;7.33;;;9.40;99.90;;;;;;5052310;28;20229;-65
2022/04/12 04:50:36;;;;;;;7.80;7.00;;;9.40;99.90;;;;;;5052623;28;20182;-63
2022/04/12 04:53:06;;;;;;;8.17;7.10;;;9.40;99.90;;;;;;5051865;28;20293;-64
2022/04/12 04:55:35;;;;;;;7.60;7.10;;;9.40;99.90;;;;;;5051790;28;20224;-65
2022/04/12 04:58:02;;;;;;;7.60;7.10;;;9.40;99.90;;;;;;5051901;28;20190;-65
2022/04/12 05:00:32;;;;;;;8.70;7.83;;;9.40;99.90;;;;;;5052027;28;20174;-65
2022/04/12 05:02:59;;;;;;;8.27;7.57;;;9.40;99.90;;;;;;5051833;28;20703;-64
2022/04/12 05:05:26;;;;;;;7.90;7.20;;;9.40;99.90;;;;;;5051746;28;20175;-64
2022/04/12 05:07:53;;;;;;;8.50;7.27;;;9.40;99.90;;;;;;5051630;28;20228;-64
2022/04/12 05:10:21;;;;;;;8.40;7.70;;;9.30;99.90;;;;;;5051887;28;20220;-65
2022/04/12 05:12:47;;;;;;;7.83;7.33;;;9.30;99.90;;;;;;5051598;28;20190;-64
2022/04/12 05:15:13;;;;;;;7.87;7.37;;;9.30;99.90;;;;;;5051493;28;20675;-64
2022/04/12 05:17:39;;;;;;;8.40;7.70;;;9.30;99.90;;;;;;5051694;28;20206;-64
2022/04/12 05:20:06;;;;;;;8.13;7.33;;;9.30;99.90;;;;;;5051447;28;20672;-64
2022/04/12 05:22:32;;;;;;;8.17;7.60;;;9.30;99.90;;;;;;5051522;28;20207;-65
2022/04/12 05:24:58;;;;;;;8.70;8.00;;;9.40;99.90;;;;;;5044168;28;20277;-65
2022/04/12 05:27:23;;;;;;;7.70;7.10;;;9.40;99.90;;;;;;5031761;28;20183;-64
2022/04/12 05:29:49;;;;;;;8.40;7.20;;;9.50;99.90;;;;;;5031454;28;20561;-64
2022/04/12 05:32:15;;;;;;;8.27;7.67;;;9.50;99.90;;;;;;5031432;28;20203;-65
2022/04/12 05:34:43;;;;;;;8.80;7.10;;;9.60;99.90;;;;;;5047833;28;20206;-65
2022/04/12 05:37:09;;;;;;;7.73;7.13;;;9.60;99.90;;;;;;5051452;28;20194;-64
2022/04/12 05:39:34;;;;;;;8.80;7.13;;;9.70;99.90;;;;;;5051300;28;20171;-65
2022/04/12 05:42:01;;;;;;;7.47;6.93;;;9.70;99.90;;;;;;5050944;28;20587;-64
2022/04/12 05:44:33;;;;;;;8.33;7.53;;;9.80;99.90;;;;;;5051296;28;20167;-66
2022/04/12 05:47:00;;;;;;;7.97;7.30;;;9.80;99.90;;;;;;5051484;28;20615;-64
2022/04/12 05:49:26;;;;;;;7.53;6.90;;;9.90;99.90;;;;;;5051572;28;20178;-65
2022/04/12 05:51:52;;;;;;;9.10;7.40;;;10.00;99.90;;;;;;5051048;28;20312;-63
2022/04/12 05:54:17;;;;;;;10.80;7.13;;;10.00;99.90;;;;;;5051159;28;20767;-65
2022/04/12 05:56:43;;;;;;;7.90;6.77;;;10.10;99.90;;;;;;5049536;28;20202;-64
2022/04/12 05:59:09;;;;;;;7.37;6.77;;;10.20;99.90;;;;;;5051319;28;20174;-64
2022/04/12 06:01:35;;;;;;;8.63;7.93;;;10.20;99.90;;;;;;5051687;28;20691;-64
2022/04/12 06:04:01;;;;;;;7.77;6.93;;;10.30;99.90;;;;;;5050729;28;20174;-65
2022/04/12 06:06:27;;;;;;;7.83;7.27;;;10.40;99.90;;;;;;5053622;28;20201;-65
2022/04/12 06:08:53;;;;;;;7.73;6.93;;;10.50;99.90;;;;;;5055065;28;20194;-65
2022/04/12 06:11:19;;;;;;;8.43;7.30;;;10.60;99.90;;;;;;5055021;28;20199;-66
2022/04/12 06:13:45;;;;;;;7.53;6.90;;;10.70;99.90;;;;;;5054924;28;20202;-65
2022/04/12 06:16:10;;;;;;;7.80;7.10;;;10.90;99.90;;;;;;5054532;28;20167;-64
2022/04/12 06:18:36;;;;;;;8.07;7.37;;;11.10;99.90;;;;;;5054978;28;20171;-65
2022/04/12 06:21:02;;;;;;;7.60;7.00;;;11.40;99.90;;;;;;5054613;28;20664;-66
2022/04/12 06:23:28;;;;;;;7.50;6.97;;;11.70;99.90;;;;;;5054930;28;20253;-66
2022/04/12 06:25:54;;;;;;;12.83;7.50;;;12.10;99.90;;;;;;5039463;28;20669;-65
2022/04/12 06:28:20;;;;;;;7.63;6.97;;;12.40;99.90;;;;;;5034980;28;20171;-66
2022/04/12 06:30:47;;;;;;;7.97;7.27;;;12.80;99.90;;;;;;5034661;28;20180;-66
2022/04/12 06:33:13;;;;;;;7.57;6.87;;;13.10;99.90;;;;;;5034639;28;20206;-65
2022/04/12 06:35:39;;;;;;;7.80;7.10;;;13.20;99.90;;;;;;5034264;28;20167;-65
2022/04/12 06:38:05;;;;;;;6.80;6.30;;;13.40;99.90;;;;;;5034486;28;20171;-65
2022/04/12 06:40:31;;;;;;;7.57;6.97;;;13.60;99.90;;;;;;5040826;28;20170;-64
2022/04/12 06:42:56;;;;;;;8.67;7.00;;;13.60;99.90;;;;;;5054084;28;20214;-65
2022/04/12 06:45:22;;;;;;;7.47;6.67;;;13.60;99.90;;;;;;5054127;28;20175;-65
2022/04/12 06:47:56;;;;;;;7.60;6.80;;;13.60;99.90;;;;;;5054217;28;20217;-65
2022/04/12 06:50:22;;;;;;;8.03;7.23;;;13.50;99.90;;;;;;5054543;28;20189;-64
2022/04/12 06:52:48;;;;;;;9.10;8.30;;;13.50;99.90;;;;;;5053917;28;20241;-66
2022/04/12 06:55:16;;;;;;;8.37;7.67;;;13.40;99.90;;;;;;5053981;28;20559;-65
2022/04/12 06:57:42;;;;;;;9.87;7.63;;;13.30;99.90;;;;;;5035411;28;20179;-65
2022/04/12 07:00:08;;;;;;;8.50;7.80;;;13.30;99.90;;;;;;5053599;28;20177;-65
2022/04/12 07:02:35;;;;;;;7.87;7.13;;;13.30;99.90;;;;;;5054142;28;20550;-64
2022/04/12 07:05:01;;;;;;;7.63;6.93;;;13.30;99.90;;;;;;5053932;28;20656;-65
2022/04/12 07:07:26;;;;;;;7.27;6.70;;;13.40;99.90;;;;;;5054141;28;20180;-66
2022/04/12 07:09:54;;;;;;;8.10;7.20;;;13.40;99.90;;;;;;5053858;28;20171;-66
2022/04/12 07:12:19;;;;;;;8.43;7.60;;;13.50;99.90;;;;;;5053812;28;20206;-65
2022/04/12 07:14:45;;;;;;;9.67;7.10;;;13.70;99.90;;;;;;5053417;28;20198;-66
2022/04/12 07:17:11;;;;;;;7.13;6.43;;;14.00;99.90;;;;;;5053708;28;20616;-65
2022/04/12 07:19:36;;;;;;;7.07;6.47;;;14.30;99.90;;;;;;5053628;28;20174;-65
2022/04/12 07:22:02;;;;;;;11.20;6.93;;;14.60;99.90;;;;;;5035502;28;20190;-65
2022/04/12 07:24:28;;;;;;;7.10;6.47;;;14.90;99.70;;;;;;5053538;28;20254;-67
2022/04/12 07:26:53;;;;;;;7.33;6.63;;;15.10;99.00;;;;;;5053418;28;20262;-66
2022/04/12 07:29:19;;;;;;;7.37;6.40;;;15.30;99.20;;;;;;5053661;28;20171;-65
2022/04/12 07:31:44;;;;;;;7.40;6.70;;;15.30;97.90;;;;;;5053589;28;20257;-67
2022/04/12 07:34:10;;;;;;;7.30;6.60;;;15.40;98.80;;;;;;5054130;28;20199;-65
2022/04/12 07:36:39;;;;;;;7.73;7.03;;;15.50;97.90;;;;;;5053849;28;20221;-66
2022/04/12 07:39:06;;;;;;;7.03;6.30;;;15.60;98.40;;;;;;5053848;28;20609;-66
2022/04/12 07:41:32;;;;;;;7.70;6.40;;;15.80;97.90;;;;;;5053281;28;20198;-66
2022/04/12 07:43:57;;;;;;;7.67;6.87;;;16.10;97.60;;;;;;5052904;28;20330;-66
2022/04/12 07:46:23;;;;;;;6.67;6.07;;;16.40;97.20;;;;;;5053230;28;20171;-66
2022/04/12 07:48:49;;;;;;;7.10;6.50;;;16.70;95.70;;;;;;5053632;28;20170;-66
2022/04/12 07:51:15;;;;;;;7.20;6.47;;;16.80;95.90;;;;;;5053507;28;20167;-65
2022/04/12 07:53:40;;;;;;;6.90;6.30;;;16.90;95.40;;;;;;5053705;28;20202;-66
2022/04/12 07:56:06;;;;;;;7.00;6.40;;;17.10;95.40;;;;;;5053160;28;20583;-65
2022/04/12 07:58:32;;;;;;;8.00;6.97;;;17.20;94.30;;;;;;5052803;28;20181;-65
2022/04/12 08:00:58;;;;;;;6.63;6.07;;;17.10;94.40;;;;;;5053038;28;20167;-66
2022/04/12 08:03:23;;;;;;;6.90;6.23;;;17.10;95.40;;;;;;5053163;28;20199;-64
2022/04/12 08:05:49;;;;;;;6.97;6.37;;;17.10;94.70;;;;;;5052624;28;20606;-65
2022/04/12 08:08:15;;;;;;;7.60;6.20;;;17.20;94.70;;;;;;5052871;28;20580;-65
2022/04/12 08:10:41;;;;;;;7.30;6.53;;;17.40;94.90;;;;;;5053157;28;20189;-65
2022/04/12 08:13:06;;;;;;;7.47;6.70;;;17.70;94.10;;;;;;5051108;28;20572;-65
2022/04/12 08:15:32;;;;;;;6.70;6.00;;;18.00;94.30;;;;;;5052287;28;20550;-64
2022/04/12 08:17:57;;;;;;;6.30;5.70;;;18.30;94.20;;;;;;5052457;28;20217;-64
2022/04/12 08:20:23;;;;;;;6.73;6.10;;;18.50;93.10;;;;;;5052770;28;20195;-64
2022/04/12 08:22:49;;;;;;;7.27;6.07;;;18.70;93.20;;;;;;5052476;28;20195;-65
2022/04/12 08:25:15;;;;;;;7.23;6.53;;;18.70;92.20;;;;;;5042973;28;20163;-64
2022/04/12 08:27:41;;;;;;;6.63;5.93;;;18.80;93.40;;;;;;5032104;28;20241;-65
2022/04/12 08:30:07;;;;;;;6.03;5.47;;;18.90;92.40;;;;;;5032351;28;20645;-66
2022/04/12 08:32:35;;;;;;;5.57;5.17;;;19.00;92.80;;;;;;5032567;28;20210;-65
2022/04/12 08:35:01;;;;;;;6.43;5.90;;;19.00;92.00;;;;;;5032337;28;20242;-66
2022/04/12 08:37:27;;;;;;;8.80;6.40;;;18.60;91.90;;;;;;5032471;28;20544;-64
2022/04/12 08:39:52;;;;;;;6.53;5.93;;;18.40;92.10;;;;;;5031852;28;20191;-64
2022/04/12 08:42:18;;;;;;;6.83;6.00;;;18.30;93.40;;;;;;5033046;28;20298;-64
2022/04/12 08:44:46;;;;;;;6.63;6.03;;;18.20;92.20;;;;;;5051256;28;20187;-65
2022/04/12 08:47:15;;;;;;;6.70;6.17;;;18.30;93.30;;;;;;5052408;28;20183;-65
2022/04/12 08:49:42;;;;;;;6.97;6.37;;;18.30;92.40;;;;;;5052590;28;20352;-66
2022/04/12 08:52:12;;;;;;;6.27;5.77;;;18.40;92.90;;;;;;5052602;28;20676;-65
2022/04/12 08:54:40;;;;;;;6.13;5.53;;;18.70;92.60;;;;;;5051969;28;20194;-64
2022/04/12 08:57:06;;;;;;;6.30;5.80;;;19.20;92.10;;;;;;5052056;28;20584;-66
2022/04/12 08:59:32;;;;;;;6.47;5.90;;;19.50;92.00;;;;;;5052195;28;20182;-66
2022/04/12 09:01:58;;;;;;;5.63;5.17;;;19.90;91.20;;;;;;5051801;28;20202;-65
2022/04/12 09:04:27;;;;;;;7.60;5.40;;;20.20;91.10;;;;;;5051942;28;20167;-65
2022/04/12 09:06:55;;;;;;;6.35;5.75;;;20.60;91.00;;;;;;5051722;28;20170;-65
2022/04/12 09:09:29;;;;;;;5.35;4.93;;;20.80;90.00;;;;;;5052101;28;20200;-66
2022/04/12 09:12:06;;;;;;;6.38;5.38;;;21.10;89.20;;;;;;5048133;28;20203;-66
2022/04/12 09:14:44;;;;;;;5.80;5.15;;;21.40;90.00;;;;;;5050179;28;20213;-65
2022/04/12 09:17:12;;;;;;;5.40;4.90;;;21.90;89.50;;;;;;5051746;28;20595;-66
2022/04/12 09:19:38;;;;;;;5.28;4.82;;;22.00;85.80;;;;;;5051838;28;20684;-65
2022/04/12 09:22:10;;;;;;;5.82;5.20;;;22.10;84.30;;;;;;5050644;28;20285;-66
2022/04/12 09:24:37;;;;;;;5.45;4.97;;;22.20;84.90;;;;;;5051642;28;20181;-65
2022/04/12 09:27:03;;;;;;;5.20;4.80;;;22.30;85.70;;;;;;5051531;28;20262;-65
2022/04/12 09:29:31;;;;;;;5.88;5.28;;;22.40;84.90;;;;;;5051630;28;20253;-65
2022/04/12 09:31:58;;;;;;;5.95;4.70;;;22.60;85.70;;;;;;5051396;28;21041;-66
2022/04/12 09:34:25;;;;;;;5.10;4.80;;;22.70;84.10;;;;;;5051415;28;20651;-66
2022/04/12 09:36:50;;;;;;;7.38;5.25;;;23.00;84.30;;;;;;5051243;28;20221;-65
2022/04/12 09:39:20;;;;;;;7.60;5.55;;;22.90;83.00;;;;;;5033159;28;20171;-66
2022/04/12 09:41:49;;;;;;;5.28;4.78;;;22.80;84.10;;;;;;5066963;22;20201;-66
2022/04/12 09:44:18;;;;;;;5.95;4.57;;;23.00;82.60;;;;;;5070912;28;20639;-67
2022/04/12 09:46:44;;;;;;;5.80;4.55;;;23.10;82.20;;;;;;5050306;28;20187;-67
2022/04/12 09:49:10;;;;;;;6.25;4.90;;;23.30;81.80;;;;;;5051731;28;20198;-66
2022/04/12 09:51:37;;;;;;;5.45;4.95;;;23.40;79.90;;;;;;5051750;28;20220;-67
2022/04/12 09:54:07;;;;;;;6.82;4.68;;;23.40;81.30;;;;;;5051356;28;20229;-66
2022/04/12 09:56:34;;;;;;;5.53;5.03;;;23.20;80.20;;;;;;5051353;28;20171;-67
2022/04/12 09:59:03;;;;;;;5.45;4.95;;;22.90;80.00;;;;;;5051361;28;20201;-66
2022/04/12 10:01:31;;;;;;;5.35;4.85;;;23.20;82.40;;;;;;5051461;28;20568;-66
2022/04/12 10:03:58;;;;;;;5.03;4.63;;;23.60;81.30;;;;;;5051322;28;20179;-67
2022/04/12 10:06:26;;;;;;;5.53;5.03;;;23.90;78.90;;;;;;5051245;28;20186;-67
2022/04/12 10:08:58;;;;;;;6.22;5.28;;;24.00;80.20;;;;;;5051437;28;20174;-66
2022/04/12 10:11:24;;;;;;;5.88;5.28;;;24.10;77.50;;;;;;5051507;28;20186;-66
2022/04/12 10:13:51;;;;;;;5.70;5.00;;;24.00;76.20;;;;;;5051176;28;20217;-67
2022/04/12 10:16:19;;;;;;;5.35;4.80;;;24.00;75.00;;;;;;5062270;28;20282;-67
2022/04/12 10:18:45;;;;;;;5.45;4.95;;;24.20;76.80;;;;;;5070180;28;20265;-67
2022/04/12 10:21:15;;;;;;;5.72;5.22;;;24.00;75.80;;;;;;5066521;28;20178;-67
2022/04/12 10:23:53;;;;;;;6.18;5.63;;;23.70;72.50;;;;;;5070233;28;20603;-67
2022/04/12 10:26:21;;;;;;;5.35;4.80;;;23.80;76.70;;;;;;5071208;28;20174;-66
2022/04/12 10:28:53;;;;;;;5.75;5.25;;;24.00;77.70;;;;;;5071282;28;20224;-67
2022/04/12 10:31:21;;;;;;;5.82;4.88;;;23.90;72.90;;;;;;5070143;28;20174;-67
2022/04/12 10:34:05;;;;;;;5.57;5.18;;;23.90;74.70;;;;;;5059196;28;20205;-67
2022/04/12 10:37:02;;;;;;;8.15;5.45;;;24.10;76.20;;;;;;5051271;28;20171;-69
2022/04/12 10:39:49;;;;;;;5.05;4.55;;;24.50;72.70;;;;;;5051458;28;20250;-67
2022/04/12 10:42:25;;;;;;;5.05;4.75;;;24.50;73.70;;;;;;5050944;28;20300;-67
2022/04/12 10:44:55;;;;;;;6.28;4.50;;;24.60;75.00;;;;;;5051034;28;20662;-67
2022/04/12 10:47:35;;;;;;;5.28;4.47;;;24.70;73.00;;;;;;5050831;28;20189;-67
2022/04/12 10:50:08;;;;;;;5.45;4.78;;;24.90;72.50;;;;;;5049676;28;20178;-66
2022/04/12 10:52:44;;;;;;;6.55;5.03;;;25.00;73.60;;;;;;5054093;28;20186;-67
2022/04/12 10:55:16;;;;;;;5.15;4.60;;;24.90;72.50;;;;;;5053331;28;20189;-67
2022/04/12 10:57:43;;;;;;;5.13;4.63;;;24.90;72.10;;;;;;5054947;28;20759;-67
2022/04/12 11:00:19;;;;;;;4.90;4.60;;;25.00;70.90;;;;;;5054698;28;20186;-67
2022/04/12 11:02:56;;;;;;;4.20;3.90;;;25.30;71.60;;;;;;5054719;28;20205;-66
2022/04/12 11:05:37;;;;;;;4.82;4.43;;;25.50;69.70;;;;;;5080773;28;20190;-66
2022/04/12 11:08:15;;;;;;;4.65;4.30;;;25.50;70.60;;;;;;5082013;28;20220;-67
2022/04/12 11:11:01;;;;;;;4.38;3.97;;;25.60;72.90;;;;;;5087215;28;20658;-66
2022/04/12 11:13:31;;;;;;;4.80;4.32;;;25.80;69.10;;;;;;5061842;28;20234;-67
2022/04/12 11:16:01;;;;;;;9.48;4.13;;;25.90;69.50;;;;;;5065927;28;20262;-67
2022/04/12 11:18:49;;;;;;;4.20;3.90;;;25.70;68.30;;;;;;5052846;28;20265;-67
2022/04/12 11:21:17;;;;;;;7.95;4.20;;;25.70;71.00;;;;;;5071023;28;20182;-67
2022/04/12 11:23:54;;;;;;;4.78;4.10;;;25.90;70.50;;;;;;5073845;28;20479;-67
2022/04/12 11:26:45;;;;;;;4.20;3.80;;;25.90;68.80;;;;;;5063303;28;20174;-67
2022/04/12 11:29:27;;;;;;;4.30;3.75;;;25.70;67.80;;;;;;5053980;28;20169;-67
2022/04/12 11:31:54;;;;;;;5.00;4.30;;;25.40;67.10;;;;;;5053600;28;20245;-66
2022/04/12 11:34:21;;;;;;;4.10;3.75;;;25.30;67.50;;;;;;5052203;28;20202;-67
2022/04/12 11:36:52;;;;;;;3.97;3.78;;;25.40;70.40;;;;;;5053255;28;20175;-67
2022/04/12 11:39:22;;;;;;;3.92;3.72;;;25.60;67.10;;;;;;5070277;28;20174;-66
2022/04/12 11:41:48;;;;;;;4.05;3.70;;;25.80;67.50;;;;;;5073292;28;20205;-65
2022/04/12 11:44:14;;;;;;;6.43;3.78;;;25.90;69.60;;;;;;5072239;28;20538;-67
2022/04/12 11:46:41;;;;;;;4.22;3.92;;;26.20;66.90;;;;;;5073261;28;20252;-68
2022/04/12 11:49:09;;;;;;;4.75;4.35;;;26.30;65.50;;;;;;5073695;28;20208;-67
2022/04/12 11:51:47;;;;;;;3.97;3.70;;;26.20;66.80;;;;;;5073461;28;20201;-67
2022/04/12 11:54:24;;;;;;;4.07;3.78;;;26.60;65.10;;;;;;5072277;28;20296;-68
2022/04/12 11:57:11;;;;;;;4.53;3.92;;;26.90;65.40;;;;;;5073138;28;20186;-68
2022/04/12 11:59:44;;;;;;;4.03;3.72;;;27.10;62.20;;;;;;5072208;28;20223;-67
2022/04/12 12:02:10;;;;;;;4.53;3.83;;;27.10;63.50;;;;;;5072941;28;20194;-67
2022/04/12 12:04:36;;;;;;;3.97;3.65;;;27.40;66.00;;;;;;5072562;28;20174;-67
2022/04/12 12:07:07;;;;;;;6.30;3.70;;;27.50;62.20;;;;;;5073227;28;20178;-67
2022/04/12 12:09:34;;;;;;;3.90;3.70;;;27.60;62.00;;;;;;5073094;28;20228;-67
2022/04/12 12:12:02;;;;;;;5.53;4.72;;;27.40;62.60;;;;;;5071832;28;20285;-67
2022/04/12 12:14:29;;;;;;;8.45;4.00;;;27.20;62.40;;;;;;5067552;28;20660;-67
2022/04/12 12:17:10;;;;;;;5.75;3.95;;;27.10;63.20;;;;;;5052893;28;20171;-67
2022/04/12 12:19:39;;;;;;;4.47;3.72;;;26.90;61.10;;;;;;5053188;28;20175;-67
2022/04/12 12:22:10;;;;;;;4.65;3.88;;;26.70;61.20;;;;;;5052684;28;20191;-67
2022/04/12 12:25:08;;;;;;;4.22;3.88;;;26.20;59.90;;;;;;5052657;28;20221;-68
2022/04/12 12:27:36;;;;;;;5.10;4.55;;;25.30;61.30;;;;;;5040653;28;20680;-67
2022/04/12 12:30:13;;;;;;;4.10;3.80;;;24.70;62.40;;;;;;5052873;28;20183;-66
2022/04/12 12:32:41;;;;;;;5.60;4.32;;;24.30;64.40;;;;;;5052578;28;20194;-67
2022/04/12 12:35:10;;;;;;;4.25;3.85;;;24.10;63.20;;;;;;5052137;28;20683;-67
2022/04/12 12:37:36;;;;;;;6.15;3.85;;;24.00;64.40;;;;;;5052671;28;20163;-67
2022/04/12 12:40:16;;;;;;;4.78;4.40;;;24.00;66.20;;;;;;5052198;28;20175;-66
2022/04/12 12:42:43;;;;;;;5.68;4.00;;;24.10;66.00;;;;;;5052371;28;20217;-66
2022/04/12 12:45:19;;;;;;;4.60;4.20;;;24.10;67.00;;;;;;5050658;28;20628;-67
2022/04/12 12:47:46;;;;;;;4.78;4.43;;;24.20;64.40;;;;;;5051240;28;20260;-66
2022/04/12 12:50:15;;;;;;;4.68;4.13;;;24.10;66.40;;;;;;5051678;28;20178;-67
2022/04/12 12:52:43;;;;;;;4.68;4.30;;;24.10;67.00;;;;;;5061432;28;20277;-67
2022/04/12 12:55:18;;;;;;;3.85;3.55;;;24.40;67.30;;;;;;5062064;28;20226;-67